Time;durP1;ratioP1;P1;durP2;ratioP2;P2;SDS_P1;SDS_P2;PMS_P1;PMS_P2;Temp;Humidity;BMP_temperature;BMP_pressure;BME280_temperature;BME280_humidity;BME280_pressure;Samples;Min_cycle;Max_cycle;Signal;HPM_P1;HPM_P2
2023/11/16 00:01:31;;;;;;;8.50;2.57;;;;;;;;;;5032763;28;20304;-67
2023/11/16 00:03:58;;;;;;;5.73;1.50;;;;;;;;;;5053100;28;20185;-67
2023/11/16 00:06:23;;;;;;;8.80;1.53;;;;;;;;;;5047996;28;20173;-67
2023/11/16 00:08:48;;;;;;;4.13;1.23;;;;;;;;;;5047700;28;20193;-67
2023/11/16 00:11:15;;;;;;;6.07;1.60;;;;;;;;;;5049531;28;20299;-67
2023/11/16 00:13:41;;;;;;;7.57;2.27;;;;;;;;;;5056467;28;20178;-67
2023/11/16 00:16:07;;;;;;;8.03;2.60;;;;;;;;;;5051589;28;20235;-67
2023/11/16 00:18:34;;;;;;;4.73;1.30;;;;;;;;;;5048947;28;20202;-67
2023/11/16 00:20:59;;;;;;;4.17;1.53;;;;;;;;;;5049072;28;20201;-68
2023/11/16 00:23:25;;;;;;;8.37;1.43;;;;;;;;;;5051902;28;20674;-68
2023/11/16 00:25:50;;;;;;;7.93;1.90;;;;;;;;;;5049083;28;20219;-67
2023/11/16 00:28:17;;;;;;;7.10;1.23;;;;;;;;;;5049074;28;20684;-67
2023/11/16 00:30:43;;;;;;;12.73;1.30;;;;;;;;;;5050178;28;20182;-67
2023/11/16 00:33:09;;;;;;;3.27;1.47;;;;;;;;;;5053515;28;20181;-67
2023/11/16 00:35:35;;;;;;;6.93;1.50;;;;;;;;;;5049851;28;20178;-67
2023/11/16 00:38:01;;;;;;;2.53;1.43;;;;;;;;;;5043079;28;20713;-67
2023/11/16 00:40:32;;;;;;;3.60;1.20;;;;;;;;;;5050047;28;20170;-67
2023/11/16 00:42:57;;;;;;;5.93;1.97;;;;;;;;;;5053848;28;20182;-67
2023/11/16 00:45:22;;;;;;;3.73;2.00;;;;;;;;;;5049600;28;20176;-67
2023/11/16 00:47:48;;;;;;;3.70;1.30;;;;;;;;;;5048061;28;20178;-67
2023/11/16 00:50:13;;;;;;;3.33;1.63;;;;;;;;;;5048238;28;20681;-67
2023/11/16 00:52:38;;;;;;;2.47;0.90;;;;;;;;;;5051011;28;20220;-67
2023/11/16 00:55:04;;;;;;;3.47;1.37;;;;;;;;;;5056455;28;20668;-67
2023/11/16 00:57:30;;;;;;;5.60;1.37;;;;;;;;;;5050412;28;20223;-67
2023/11/16 00:59:55;;;;;;;8.20;1.73;;;;;;;;;;5052333;28;20656;-67
2023/11/16 01:02:21;;;;;;;2.83;1.20;;;;;;;;;;5048026;28;20692;-67
2023/11/16 01:04:46;;;;;;;10.20;1.40;;;;;;;;;;5045830;28;20201;-67
2023/11/16 01:07:12;;;;;;;8.47;1.53;;;;;;;;;;5049046;28;20184;-67
2023/11/16 01:09:38;;;;;;;5.53;1.70;;;;;;;;;;5052240;28;20675;-68
2023/11/16 01:12:03;;;;;;;11.70;2.33;;;;;;;;;;5049485;28;20672;-68
2023/11/16 01:14:29;;;;;;;5.10;1.60;;;;;;;;;;5053225;28;20201;-67
2023/11/16 01:16:54;;;;;;;5.50;1.40;;;;;;;;;;5048647;28;20205;-67
2023/11/16 01:19:25;;;;;;;7.37;1.97;;;;;;;;;;5047426;28;20693;-68
2023/11/16 01:21:54;;;;;;;2.57;1.80;;;;;;;;;;5046674;28;20293;-67
2023/11/16 01:24:22;;;;;;;10.47;2.40;;;;;;;;;;5048183;28;20209;-67
2023/11/16 01:26:47;;;;;;;8.73;2.00;;;;;;;;;;5049285;28;20655;-67
2023/11/16 01:29:18;;;;;;;5.53;1.80;;;;;;;;;;5049756;28;20260;-68
2023/11/16 01:31:43;;;;;;;5.43;1.50;;;;;;;;;;5033200;28;20201;-68
2023/11/16 01:34:10;;;;;;;6.03;1.83;;;;;;;;;;5048866;28;20195;-68
2023/11/16 01:36:36;;;;;;;13.37;2.73;;;;;;;;;;5052940;28;20200;-68
2023/11/16 01:39:01;;;;;;;3.63;1.90;;;;;;;;;;5045800;28;20173;-68
2023/11/16 01:41:26;;;;;;;4.37;1.30;;;;;;;;;;5046368;28;20850;-67
2023/11/16 01:43:51;;;;;;;10.13;1.57;;;;;;;;;;5050988;28;20277;-68
2023/11/16 01:46:17;;;;;;;4.50;0.87;;;;;;;;;;5049839;28;20649;-68
2023/11/16 01:48:43;;;;;;;5.73;1.10;;;;;;;;;;5051412;28;20644;-67
2023/11/16 01:51:11;;;;;;;3.70;0.70;;;;;;;;;;5046421;28;20280;-68
2023/11/16 01:53:41;;;;;;;5.57;1.17;;;;;;;;;;5045180;28;20181;-68
2023/11/16 01:56:07;;;;;;;5.27;1.63;;;;;;;;;;5043660;28;20247;-67
2023/11/16 01:58:33;;;;;;;5.83;1.70;;;;;;;;;;5050535;28;20205;-67
2023/11/16 02:00:59;;;;;;;5.53;1.20;;;;;;;;;;5049169;28;20948;-67
2023/11/16 02:03:24;;;;;;;3.40;1.00;;;;;;;;;;5052227;28;20205;-67
2023/11/16 02:05:49;;;;;;;7.07;1.13;;;;;;;;;;5050824;28;20663;-66
2023/11/16 02:08:15;;;;;;;3.27;1.40;;;;;;;;;;5031618;28;20215;-68
2023/11/16 02:10:41;;;;;;;4.03;1.10;;;;;;;;;;5050425;28;20263;-67
2023/11/16 02:13:18;;;;;;;5.27;1.20;;;;;;;;;;5050734;28;20238;-66
2023/11/16 02:15:45;;;;;;;5.83;1.27;;;;;;;;;;5025149;28;20186;-67
2023/11/16 02:18:13;;;;;;;4.17;0.90;;;;;;;;;;5048404;28;20653;-66
2023/11/16 02:20:39;;;;;;;8.57;1.47;;;;;;;;;;5048241;28;20214;-66
2023/11/16 02:23:04;;;;;;;7.23;2.03;;;;;;;;;;5048861;28;20619;-67
2023/11/16 02:25:29;;;;;;;3.57;1.30;;;;;;;;;;5046262;28;20186;-67
2023/11/16 02:27:54;;;;;;;5.77;1.20;;;;;;;;;;5052545;28;20181;-67
2023/11/16 02:30:20;;;;;;;3.97;1.57;;;;;;;;;;5053579;28;20556;-67
2023/11/16 02:32:45;;;;;;;3.43;1.10;;;;;;;;;;5052627;28;20197;-67
2023/11/16 02:35:11;;;;;;;4.43;0.90;;;;;;;;;;5052177;28;20205;-67
2023/11/16 02:37:37;;;;;;;6.17;1.20;;;;;;;;;;5034078;28;20677;-67
2023/11/16 02:40:04;;;;;;;3.70;1.40;;;;;;;;;;5038803;28;20604;-67
2023/11/16 02:42:29;;;;;;;3.40;1.03;;;;;;;;;;5052177;28;20218;-66
2023/11/16 02:44:57;;;;;;;4.53;1.10;;;;;;;;;;5055909;28;20199;-66
2023/11/16 02:47:23;;;;;;;7.30;1.30;;;;;;;;;;5054831;28;21805;-67
2023/11/16 02:49:48;;;;;;;5.53;2.60;;;;;;;;;;5051343;28;20186;-67
2023/11/16 02:52:13;;;;;;;3.53;1.83;;;;;;;;;;5052433;28;20543;-67
2023/11/16 02:54:39;;;;;;;2.90;1.20;;;;;;;;;;5054442;28;20323;-67
2023/11/16 02:57:09;;;;;;;6.27;1.27;;;;;;;;;;5052123;28;20205;-66
2023/11/16 02:59:34;;;;;;;4.03;1.23;;;;;;;;;;5054967;28;20296;-67
2023/11/16 03:01:59;;;;;;;2.93;1.20;;;;;;;;;;5050366;28;20300;-68
2023/11/16 03:04:24;;;;;;;5.40;1.17;;;;;;;;;;5051257;28;20168;-67
2023/11/16 03:06:51;;;;;;;3.60;1.13;;;;;;;;;;5051120;28;20268;-67
2023/11/16 03:09:16;;;;;;;7.37;1.40;;;;;;;;;;5054232;28;20169;-66
2023/11/16 03:11:41;;;;;;;2.73;1.23;;;;;;;;;;5053621;28;20205;-67
2023/11/16 03:14:08;;;;;;;6.17;1.40;;;;;;;;;;5051301;28;20177;-66
2023/11/16 03:16:39;;;;;;;2.60;1.20;;;;;;;;;;5051495;28;20219;-66
2023/11/16 03:19:04;;;;;;;5.43;1.00;;;;;;;;;;5033712;28;20276;-67
2023/11/16 03:21:29;;;;;;;3.80;1.20;;;;;;;;;;5049738;28;20276;-65
2023/11/16 03:23:55;;;;;;;3.43;0.73;;;;;;;;;;5050017;28;20658;-66
2023/11/16 03:26:20;;;;;;;3.23;1.03;;;;;;;;;;5051350;28;20189;-66
2023/11/16 03:28:49;;;;;;;1.67;0.83;;;;;;;;;;5050009;28;20200;-66
2023/11/16 03:31:14;;;;;;;1.77;0.90;;;;;;;;;;5047992;28;20244;-65
2023/11/16 03:33:39;;;;;;;8.67;1.20;;;;;;;;;;5049730;28;20197;-66
2023/11/16 03:36:05;;;;;;;7.13;1.17;;;;;;;;;;5052563;28;20220;-66
2023/11/16 03:38:30;;;;;;;8.73;1.93;;;;;;;;;;5048428;28;20209;-66
2023/11/16 03:40:55;;;;;;;6.23;1.40;;;;;;;;;;5051537;28;20205;-67
2023/11/16 03:43:22;;;;;;;6.43;1.20;;;;;;;;;;5053688;28;20577;-67
2023/11/16 03:45:47;;;;;;;3.30;1.30;;;;;;;;;;5051439;28;20192;-67
2023/11/16 03:48:13;;;;;;;2.40;1.00;;;;;;;;;;5052833;28;20635;-67
2023/11/16 03:50:40;;;;;;;3.60;1.20;;;;;;;;;;5049610;28;20912;-67
2023/11/16 03:53:06;;;;;;;6.40;1.53;;;;;;;;;;5033428;28;20544;-66
2023/11/16 03:55:31;;;;;;;2.37;1.10;;;;;;;;;;5049588;28;20184;-67
2023/11/16 03:57:56;;;;;;;3.60;1.20;;;;;;;;;;5051448;28;20212;-67
2023/11/16 04:00:22;;;;;;;2.60;1.13;;;;;;;;;;5049354;28;20185;-67
2023/11/16 04:02:48;;;;;;;1.57;0.90;;;;;;;;;;5047903;28;20213;-67
2023/11/16 04:05:16;;;;;;;7.93;2.00;;;;;;;;;;5049840;28;20265;-67
2023/11/16 04:07:41;;;;;;;5.63;1.47;;;;;;;;;;5048127;28;20209;-67
2023/11/16 04:10:09;;;;;;;3.97;1.40;;;;;;;;;;5048364;28;20243;-66
2023/11/16 04:12:37;;;;;;;2.80;1.23;;;;;;;;;;5032297;28;20209;-66
2023/11/16 04:15:04;;;;;;;2.33;1.40;;;;;;;;;;5050568;28;20264;-66
2023/11/16 04:17:29;;;;;;;1.40;1.20;;;;;;;;;;5050735;28;20846;-69
2023/11/16 04:19:54;;;;;;;5.03;1.47;;;;;;;;;;5048663;28;20272;-69
2023/11/16 04:22:21;;;;;;;3.10;0.97;;;;;;;;;;5043552;28;20695;-67
2023/11/16 04:24:51;;;;;;;3.87;1.30;;;;;;;;;;5051592;28;20633;-66
2023/11/16 04:27:17;;;;;;;3.83;1.30;;;;;;;;;;5048074;28;20269;-66
2023/11/16 04:29:44;;;;;;;1.87;1.37;;;;;;;;;;5050364;28;20284;-66
2023/11/16 04:32:11;;;;;;;4.53;1.73;;;;;;;;;;5045131;28;20208;-66
2023/11/16 04:34:36;;;;;;;4.63;1.70;;;;;;;;;;5032382;28;20196;-66
2023/11/16 04:37:04;;;;;;;3.33;1.30;;;;;;;;;;5049951;28;20209;-66
2023/11/16 04:39:29;;;;;;;2.40;1.47;;;;;;;;;;5049011;28;20182;-65
2023/11/16 04:41:55;;;;;;;2.13;1.30;;;;;;;;;;5049999;28;20287;-66
2023/11/16 04:44:20;;;;;;;7.43;1.80;;;;;;;;;;5049689;28;20606;-67
2023/11/16 04:46:48;;;;;;;3.70;1.67;;;;;;;;;;5050109;28;20174;-68
2023/11/16 04:49:14;;;;;;;6.90;1.80;;;;;;;;;;5047641;28;20182;-67
2023/11/16 04:51:40;;;;;;;4.03;1.50;;;;;;;;;;5048280;28;20205;-67
2023/11/16 04:54:06;;;;;;;4.67;2.03;;;;;;;;;;5050419;28;20643;-68
2023/11/16 04:56:31;;;;;;;5.93;2.43;;;;;;;;;;5049688;28;20264;-67
2023/11/16 04:58:56;;;;;;;7.23;3.30;;;;;;;;;;5049622;28;20205;-67
2023/11/16 05:01:23;;;;;;;4.70;2.53;;;;;;;;;;5048807;28;20205;-68
2023/11/16 05:03:48;;;;;;;5.90;2.70;;;;;;;;;;5029728;28;20667;-67
2023/11/16 05:06:14;;;;;;;6.27;3.00;;;;;;;;;;5049835;28;20181;-67
2023/11/16 05:08:40;;;;;;;5.00;3.00;;;;;;;;;;5049841;28;20200;-67
2023/11/16 05:11:05;;;;;;;6.50;3.00;;;;;;;;;;5049038;28;21755;-67
2023/11/16 05:13:30;;;;;;;4.23;2.73;;;;;;;;;;5045608;28;20208;-67
2023/11/16 05:15:56;;;;;;;5.17;2.87;;;;;;;;;;5049576;28;20186;-67
2023/11/16 05:18:22;;;;;;;6.57;3.60;;;;;;;;;;5031914;28;20550;-67
2023/11/16 05:20:47;;;;;;;6.57;3.70;;;;;;;;;;5047807;28;20231;-67
2023/11/16 05:23:13;;;;;;;8.57;3.43;;;;;;;;;;5050040;28;20411;-67
2023/11/16 05:25:38;;;;;;;5.40;3.47;;;;;;;;;;5046828;28;20169;-67
2023/11/16 05:28:04;;;;;;;5.13;4.20;;;;;;;;;;5053575;28;20225;-67
2023/11/16 05:30:29;;;;;;;9.47;4.33;;;;;;;;;;5048473;28;20178;-67
2023/11/16 05:32:55;;;;;;;5.17;3.50;;;;;;;;;;5047624;28;20636;-67
2023/11/16 05:35:20;;;;;;;7.33;3.83;;;;;;;;;;5047138;28;20189;-67
2023/11/16 05:37:45;;;;;;;6.83;3.90;;;;;;;;;;5048408;28;20201;-67
2023/11/16 05:40:10;;;;;;;4.50;3.23;;;;;;;;;;5048319;28;20925;-67
2023/11/16 05:42:35;;;;;;;7.20;4.10;;;;;;;;;;5048543;28;20193;-67
2023/11/16 05:45:02;;;;;;;7.17;4.27;;;;;;;;;;5030224;28;20712;-66
2023/11/16 05:47:27;;;;;;;7.23;4.70;;;;;;;;;;5049729;28;20185;-66
2023/11/16 05:49:53;;;;;;;8.87;4.60;;;;;;;;;;5046890;28;20268;-67
2023/11/16 05:52:18;;;;;;;10.20;4.93;;;;;;;;;;5048329;28;20197;-66
2023/11/16 05:54:44;;;;;;;10.90;5.93;;;;;;;;;;5047961;28;20641;-66
2023/11/16 05:57:10;;;;;;;10.20;5.27;;;;;;;;;;5050625;28;20586;-66
2023/11/16 05:59:35;;;;;;;11.23;5.43;;;;;;;;;;5048937;28;20319;-67
2023/11/16 06:02:00;;;;;;;8.93;5.37;;;;;;;;;;5051004;28;20707;-67
2023/11/16 06:04:25;;;;;;;10.47;5.97;;;;;;;;;;5053613;28;20649;-67
2023/11/16 06:06:51;;;;;;;8.10;5.40;;;;;;;;;;5053680;28;20403;-66
2023/11/16 06:09:17;;;;;;;6.70;5.40;;;;;;;;;;5054046;28;20177;-67
2023/11/16 06:11:42;;;;;;;8.90;5.97;;;;;;;;;;5055022;28;20193;-65
2023/11/16 06:14:08;;;;;;;8.27;5.97;;;;;;;;;;5052198;28;20177;-67
2023/11/16 06:16:34;;;;;;;7.07;5.83;;;;;;;;;;5057968;28;20204;-66
2023/11/16 06:18:59;;;;;;;7.23;5.30;;;;;;;;;;5053989;28;20633;-66
2023/11/16 06:21:24;;;;;;;8.40;6.00;;;;;;;;;;5053078;28;20200;-66
2023/11/16 06:23:49;;;;;;;8.80;5.27;;;;;;;;;;5054111;28;20181;-66
2023/11/16 06:26:15;;;;;;;9.47;5.90;;;;;;;;;;5059150;28;20230;-67
2023/11/16 06:28:40;;;;;;;13.87;5.67;;;;;;;;;;5060889;28;20177;-66
2023/11/16 06:31:05;;;;;;;7.83;5.63;;;;;;;;;;5036733;28;20197;-67
2023/11/16 06:33:31;;;;;;;10.33;5.57;;;;;;;;;;5054238;28;20573;-67
2023/11/16 06:35:56;;;;;;;7.37;4.93;;;;;;;;;;5056221;28;20203;-66
2023/11/16 06:38:21;;;;;;;7.20;5.10;;;;;;;;;;5054658;28;20197;-67
2023/11/16 06:40:46;;;;;;;7.97;5.70;;;;;;;;;;5059338;28;20205;-67
2023/11/16 06:43:12;;;;;;;9.10;5.90;;;;;;;;;;5049601;28;20173;-66
2023/11/16 06:45:39;;;;;;;10.17;5.40;;;;;;;;;;5056009;28;20199;-67
2023/11/16 06:48:05;;;;;;;7.50;4.70;;;;;;;;;;5052151;28;20260;-67
2023/11/16 06:50:33;;;;;;;6.63;4.67;;;;;;;;;;5054632;28;20188;-67
2023/11/16 06:53:01;;;;;;;8.40;5.40;;;;;;;;;;5054485;28;20197;-67
2023/11/16 06:55:26;;;;;;;10.57;5.10;;;;;;;;;;5052735;28;20614;-67
2023/11/16 06:57:52;;;;;;;7.10;4.33;;;;;;;;;;5054222;28;20296;-67
2023/11/16 07:00:21;;;;;;;10.47;4.53;;;;;;;;;;5051231;28;20170;-67
2023/11/16 07:02:46;;;;;;;6.40;4.10;;;;;;;;;;5055010;28;20209;-67
2023/11/16 07:05:14;;;;;;;7.53;4.77;;;;;;;;;;5057319;28;20231;-67
2023/11/16 07:07:40;;;;;;;6.53;4.03;;;;;;;;;;5057077;28;20169;-67
2023/11/16 07:10:08;;;;;;;9.50;4.60;;;;;;;;;;5054841;28;20199;-66
2023/11/16 07:12:33;;;;;;;8.37;4.93;;;;;;;;;;5052745;28;21054;-67
2023/11/16 07:15:01;;;;;;;8.33;4.30;;;;;;;;;;5052094;28;20272;-67
2023/11/16 07:17:26;;;;;;;10.97;5.80;;;;;;;;;;5049230;28;20198;-67
2023/11/16 07:19:53;;;;;;;9.23;5.30;;;;;;;;;;5050628;28;20180;-67
2023/11/16 07:22:20;;;;;;;8.97;5.37;;;;;;;;;;5052678;28;20200;-67
2023/11/16 07:24:47;;;;;;;15.37;5.53;;;;;;;;;;5050326;28;20177;-67
2023/11/16 07:27:13;;;;;;;14.90;6.60;;;;;;;;;;5051215;28;20731;-67
2023/11/16 07:29:39;;;;;;;8.93;5.80;;;;;;;;;;5051441;28;20272;-67
2023/11/16 07:32:04;;;;;;;10.40;5.43;;;;;;;;;;5040130;28;20212;-66
2023/11/16 07:34:29;;;;;;;11.37;6.03;;;;;;;;;;5051665;28;20192;-67
2023/11/16 07:36:54;;;;;;;8.93;5.63;;;;;;;;;;5055287;28;20180;-67
2023/11/16 07:39:20;;;;;;;12.70;5.43;;;;;;;;;;5052453;28;20184;-68
2023/11/16 07:41:46;;;;;;;11.43;6.17;;;;;;;;;;5049911;28;20637;-67
2023/11/16 07:44:11;;;;;;;10.83;5.80;;;;;;;;;;5055970;28;20182;-67
2023/11/16 07:46:37;;;;;;;10.87;7.03;;;;;;;;;;5052732;28;20179;-67
2023/11/16 07:49:02;;;;;;;12.17;6.07;;;;;;;;;;5053728;28;20917;-67
2023/11/16 07:51:28;;;;;;;10.83;6.57;;;;;;;;;;5052600;28;20237;-67
2023/11/16 07:53:54;;;;;;;14.97;7.43;;;;;;;;;;5041685;28;20640;-67
2023/11/16 07:56:20;;;;;;;14.83;6.90;;;;;;;;;;5047812;28;20182;-66
2023/11/16 07:58:49;;;;;;;13.10;7.57;;;;;;;;;;5050357;28;20216;-67
2023/11/16 08:01:17;;;;;;;11.93;7.07;;;;;;;;;;5046581;28;20210;-67
2023/11/16 08:03:46;;;;;;;16.57;8.87;;;;;;;;;;5048597;28;20217;-66
2023/11/16 08:06:12;;;;;;;13.77;7.90;;;;;;;;;;5049698;28;20188;-67
2023/11/16 08:08:45;;;;;;;15.53;7.73;;;;;;;;;;5049561;28;20563;-67
2023/11/16 08:11:11;;;;;;;15.17;7.07;;;;;;;;;;5050464;28;20245;-66
2023/11/16 08:13:36;;;;;;;17.17;7.87;;;;;;;;;;5053336;28;20297;-66
2023/11/16 08:16:04;;;;;;;15.73;7.07;;;;;;;;;;5051207;28;20635;-66
2023/11/16 08:18:30;;;;;;;12.60;6.77;;;;;;;;;;5055555;28;20288;-67
2023/11/16 08:20:55;;;;;;;16.90;7.60;;;;;;;;;;5046874;28;20279;-67
2023/11/16 08:23:20;;;;;;;15.67;8.23;;;;;;;;;;5049625;28;20278;-67
2023/11/16 08:25:47;;;;;;;13.53;7.20;;;;;;;;;;5051427;28;20177;-67
2023/11/16 08:28:14;;;;;;;15.47;8.57;;;;;;;;;;5051593;28;20185;-67
2023/11/16 08:30:41;;;;;;;13.67;7.37;;;;;;;;;;5049242;28;20189;-67
2023/11/16 08:33:08;;;;;;;17.03;8.17;;;;;;;;;;5047173;28;20675;-67
2023/11/16 08:35:37;;;;;;;12.73;7.67;;;;;;;;;;5049131;28;20213;-67
2023/11/16 08:38:02;;;;;;;15.37;7.37;;;;;;;;;;5031248;28;20205;-67
2023/11/16 08:40:29;;;;;;;15.30;7.97;;;;;;;;;;5052359;28;20176;-66
2023/11/16 08:42:56;;;;;;;14.80;7.77;;;;;;;;;;5049754;28;20648;-67
2023/11/16 08:45:24;;;;;;;18.83;10.13;;;;;;;;;;5052150;28;20642;-66
2023/11/16 08:47:57;;;;;;;16.53;8.23;;;;;;;;;;5035425;28;20208;-67
2023/11/16 08:50:23;;;;;;;13.90;7.37;;;;;;;;;;5046354;28;20185;-67
2023/11/16 08:52:48;;;;;;;22.27;8.63;;;;;;;;;;5050692;28;20755;-67
2023/11/16 08:55:15;;;;;;;12.60;7.70;;;;;;;;;;5047715;28;20197;-67
2023/11/16 08:57:41;;;;;;;16.33;8.23;;;;;;;;;;5047034;28;20596;-67
2023/11/16 09:02:54;;;;;;;12.87;7.83;;;;;;;;;;5047214;28;20852;-66
2023/11/16 09:05:20;;;;;;;16.93;8.43;;;;;;;;;;5051828;28;20217;-67
2023/11/16 09:07:45;;;;;;;15.83;7.73;;;;;;;;;;5053142;28;20193;-68
2023/11/16 09:10:14;;;;;;;19.40;8.87;;;;;;;;;;5049739;28;20189;-67
2023/11/16 09:12:42;;;;;;;18.58;7.63;;;;;;;;;;5053467;28;20197;-67
2023/11/16 09:15:10;;;;;;;15.93;8.20;;;;;;;;;;5052115;28;20182;-68
2023/11/16 09:17:36;;;;;;;18.43;8.03;;;;;;;;;;5053308;28;20233;-67
2023/11/16 09:20:04;;;;;;;17.67;8.13;;;;;;;;;;5049598;28;20188;-67
2023/11/16 09:22:29;;;;;;;13.53;8.40;;;;;;;;;;5050797;28;20221;-68
2023/11/16 09:24:57;;;;;;;19.53;8.90;;;;;;;;;;5049994;28;20217;-67
2023/11/16 09:27:23;;;;;;;15.83;7.90;;;;;;;;;;5052035;28;20676;-67
2023/11/16 09:29:51;;;;;;;15.00;7.40;;;;;;;;;;5042661;28;20220;-68
2023/11/16 09:32:17;;;;;;;14.23;8.07;;;;;;;;;;5043497;28;20292;-67
2023/11/16 09:34:42;;;;;;;16.90;7.63;;;;;;;;;;5051091;28;20268;-68
2023/11/16 09:37:08;;;;;;;18.17;8.65;;;;;;;;;;5051555;28;20185;-68
2023/11/16 09:39:33;;;;;;;16.83;8.40;;;;;;;;;;5052773;28;20178;-68
2023/11/16 09:42:00;;;;;;;14.37;7.80;;;;;;;;;;5051474;28;20247;-67
2023/11/16 09:44:27;;;;;;;17.77;10.67;;;;;;;;;;5050604;28;20227;-67
2023/11/16 09:47:02;;;;;;;16.30;8.43;;;;;;;;;;5052924;28;20177;-67
2023/11/16 09:49:29;;;;;;;16.90;9.60;;;;;;;;;;5050487;28;20614;-67
2023/11/16 09:51:55;;;;;;;19.37;9.93;;;;;;;;;;5049597;28;20231;-68
2023/11/16 09:54:22;;;;;;;15.20;9.37;;;;;;;;;;5049299;28;20181;-68
2023/11/16 09:56:48;;;;;;;14.48;9.35;;;;;;;;;;5040468;28;20645;-67
2023/11/16 09:59:17;;;;;;;15.02;8.38;;;;;;;;;;5048829;28;20216;-67
2023/11/16 10:01:53;;;;;;;16.30;8.48;;;;;;;;;;5048563;28;20206;-67
2023/11/16 10:04:19;;;;;;;18.77;8.93;;;;;;;;;;5050060;28;20179;-68
2023/11/16 10:06:48;;;;;;;16.63;8.07;;;;;;;;;;5051650;28;20536;-67
2023/11/16 10:09:14;;;;;;;15.55;8.65;;;;;;;;;;5049323;28;20212;-68
2023/11/16 10:11:40;;;;;;;13.77;7.60;;;;;;;;;;5042224;28;20708;-67
2023/11/16 10:14:05;;;;;;;13.75;7.97;;;;;;;;;;5050073;28;20173;-68
2023/11/16 10:16:31;;;;;;;14.93;8.00;;;;;;;;;;5052078;28;20181;-67
2023/11/16 10:18:59;;;;;;;12.90;7.85;;;;;;;;;;5049870;28;20205;-67
2023/11/16 10:21:25;;;;;;;13.30;7.53;;;;;;;;;;5048954;28;20197;-67
2023/11/16 10:23:51;;;;;;;10.88;6.88;;;;;;;;;;5048115;28;20189;-68
2023/11/16 10:26:17;;;;;;;11.48;7.22;;;;;;;;;;5050202;28;20237;-68
2023/11/16 10:28:43;;;;;;;12.45;7.82;;;;;;;;;;5044855;28;20185;-66
2023/11/16 10:31:08;;;;;;;17.80;8.23;;;;;;;;;;5048835;28;20205;-67
2023/11/16 10:33:34;;;;;;;18.45;9.60;;;;;;;;;;5047442;28;20181;-68
2023/11/16 10:36:00;;;;;;;19.63;10.40;;;;;;;;;;5053912;28;20189;-67
2023/11/16 10:38:27;;;;;;;12.07;8.77;;;;;;;;;;5050351;28;20201;-67
2023/11/16 10:40:53;;;;;;;18.02;9.90;;;;;;;;;;5053313;28;20551;-67
2023/11/16 10:43:20;;;;;;;18.48;9.88;;;;;;;;;;5053096;28;20177;-68
2023/11/16 10:45:45;;;;;;;17.70;10.30;;;;;;;;;;5050678;28;20173;-67
2023/11/16 10:48:15;;;;;;;14.90;10.23;;;;;;;;;;5051310;28;20180;-67
2023/11/16 10:50:42;;;;;;;16.77;9.43;;;;;;;;;;5053324;28;20182;-68
2023/11/16 10:53:08;;;;;;;20.33;9.52;;;;;;;;;;5050626;28;20200;-66
2023/11/16 10:55:36;;;;;;;18.70;9.48;;;;;;;;;;5055562;28;20185;-67
2023/11/16 10:58:04;;;;;;;16.75;8.73;;;;;;;;;;5053450;28;20879;-67
2023/11/16 11:00:32;;;;;;;11.93;8.27;;;;;;;;;;5054754;28;20177;-67
2023/11/16 11:02:59;;;;;;;20.75;9.18;;;;;;;;;;5051841;28;20186;-66
2023/11/16 11:05:29;;;;;;;18.73;9.98;;;;;;;;;;5053720;28;20234;-68
2023/11/16 11:07:56;;;;;;;17.52;9.60;;;;;;;;;;5052472;28;20285;-67
2023/11/16 11:10:22;;;;;;;15.02;8.77;;;;;;;;;;5051726;28;20174;-67
2023/11/16 11:12:47;;;;;;;19.25;8.82;;;;;;;;;;5052762;28;20870;-67
2023/11/16 11:15:32;;;;;;;17.65;9.13;;;;;;;;;;5054403;28;20196;-67
2023/11/16 11:18:00;;;;;;;17.63;9.45;;;;;;;;;;5054117;28;20235;-67
2023/11/16 11:20:40;;;;;;;16.30;9.68;;;;;;;;;;5053216;28;20256;-67
2023/11/16 11:23:18;;;;;;;15.60;9.55;;;;;;;;;;5052609;28;20273;-67
2023/11/16 11:25:43;;;;;;;12.60;9.27;;;;;;;;;;5053857;28;20181;-67
2023/11/16 11:28:09;;;;;;;17.67;9.13;;;;;;;;;;5055552;28;20533;-67
2023/11/16 11:30:37;;;;;;;17.43;9.50;;;;;;;;;;5053264;28;20177;-67
2023/11/16 11:33:05;;;;;;;13.40;9.05;;;;;;;;;;5049248;28;20174;-67
2023/11/16 11:35:35;;;;;;;15.52;8.20;;;;;;;;;;5054612;28;20268;-68
2023/11/16 11:38:02;;;;;;;13.07;8.50;;;;;;;;;;5051213;28;20212;-68
2023/11/16 11:40:28;;;;;;;15.25;8.70;;;;;;;;;;5053214;28;20173;-67
2023/11/16 11:42:53;;;;;;;14.10;8.38;;;;;;;;;;5053654;28;20243;-68
2023/11/16 11:45:20;;;;;;;14.93;9.27;;;;;;;;;;5053772;28;20185;-67
2023/11/16 11:47:48;;;;;;;13.80;8.55;;;;;;;;;;5051556;28;20183;-67
2023/11/16 11:50:20;;;;;;;12.35;8.07;;;;;;;;;;5053992;28;20951;-67
2023/11/16 11:52:49;;;;;;;15.05;8.40;;;;;;;;;;5052177;28;20317;-66
2023/11/16 11:55:14;;;;;;;14.33;8.53;;;;;;;;;;5051544;28;20177;-67
2023/11/16 11:57:41;;;;;;;19.75;8.75;;;;;;;;;;5052133;28;20215;-67
2023/11/16 12:00:07;;;;;;;22.45;10.50;;;;;;;;;;5054323;28;20181;-67
2023/11/16 12:02:33;;;;;;;18.73;9.93;;;;;;;;;;5031902;28;20211;-66
2023/11/16 12:04:58;;;;;;;16.88;10.05;;;;;;;;;;5052173;28;20256;-67
2023/11/16 12:07:24;;;;;;;18.07;9.50;;;;;;;;;;5050113;28;20530;-67
2023/11/16 12:09:51;;;;;;;16.87;10.17;;;;;;;;;;5050340;28;20214;-67
2023/11/16 12:12:16;;;;;;;16.33;10.23;;;;;;;;;;5034299;28;20699;-66
2023/11/16 12:14:47;;;;;;;19.45;10.60;;;;;;;;;;5054545;28;20182;-67
2023/11/16 12:17:14;;;;;;;18.77;11.07;;;;;;;;;;5053377;28;20270;-66
2023/11/16 12:19:40;;;;;;;14.43;9.47;;;;;;;;;;5050184;28;20652;-66
2023/11/16 12:22:07;;;;;;;17.23;10.53;;;;;;;;;;5050421;28;20579;-66
2023/11/16 12:24:33;;;;;;;18.47;11.03;;;;;;;;;;5052450;28;20202;-67
2023/11/16 12:26:58;;;;;;;16.50;10.73;;;;;;;;;;5052915;28;20212;-66
2023/11/16 12:29:26;;;;;;;18.73;10.70;;;;;;;;;;5053138;28;20182;-66
2023/11/16 12:31:52;;;;;;;19.90;10.63;;;;;;;;;;5051239;28;20657;-66
2023/11/16 12:34:17;;;;;;;19.70;10.87;;;;;;;;;;5051595;28;20196;-66
2023/11/16 12:36:44;;;;;;;12.47;9.03;;;;;;;;;;5048518;28;20181;-67
2023/11/16 12:39:09;;;;;;;17.05;9.13;;;;;;;;;;5051748;28;20574;-66
2023/11/16 12:41:37;;;;;;;12.50;8.93;;;;;;;;;;5035608;28;20218;-67
2023/11/16 12:44:03;;;;;;;14.13;9.27;;;;;;;;;;5053907;28;20724;-66
2023/11/16 12:46:28;;;;;;;16.75;9.90;;;;;;;;;;5050932;28;20173;-66
2023/11/16 12:48:53;;;;;;;15.15;8.88;;;;;;;;;;5052115;28;20610;-66
2023/11/16 12:51:19;;;;;;;16.42;9.40;;;;;;;;;;5034239;28;20304;-66
2023/11/16 12:53:44;;;;;;;16.77;8.52;;;;;;;;;;5050553;28;20672;-67
2023/11/16 12:56:10;;;;;;;14.13;8.90;;;;;;;;;;5050201;28;20181;-65
2023/11/16 12:58:37;;;;;;;17.55;8.65;;;;;;;;;;5052330;28;20254;-67
2023/11/16 13:01:03;;;;;;;19.57;8.60;;;;;;;;;;5033808;28;20715;-66
2023/11/16 13:03:30;;;;;;;19.87;8.97;;;;;;;;;;5019562;28;20181;-67
2023/11/16 13:05:56;;;;;;;15.47;8.17;;;;;;;;;;5034548;28;20185;-67
2023/11/16 13:08:22;;;;;;;17.77;8.97;;;;;;;;;;5053578;28;20222;-66
2023/11/16 13:10:47;;;;;;;17.37;9.00;;;;;;;;;;5050384;28;20308;-67
2023/11/16 13:13:13;;;;;;;15.05;8.75;;;;;;;;;;5052712;28;20655;-67
2023/11/16 13:15:39;;;;;;;11.93;7.90;;;;;;;;;;5051929;28;20248;-67
2023/11/16 13:18:04;;;;;;;18.10;8.30;;;;;;;;;;5051466;28;20208;-67
2023/11/16 13:20:29;;;;;;;17.10;8.57;;;;;;;;;;5035531;28;20190;-67
2023/11/16 13:22:54;;;;;;;16.02;8.63;;;;;;;;;;5050088;28;20305;-67
2023/11/16 13:25:21;;;;;;;17.45;9.73;;;;;;;;;;5052235;28;20558;-66
2023/11/16 13:27:46;;;;;;;16.48;8.82;;;;;;;;;;5049996;28;20180;-66
2023/11/16 13:30:12;;;;;;;12.97;8.37;;;;;;;;;;5053230;28;20598;-67
2023/11/16 13:32:38;;;;;;;15.10;7.93;;;;;;;;;;5031142;28;20660;-66
2023/11/16 13:35:05;;;;;;;13.57;7.73;;;;;;;;;;5051526;28;20186;-66
2023/11/16 13:37:31;;;;;;;10.93;7.68;;;;;;;;;;5049148;28;20209;-67
2023/11/16 13:39:57;;;;;;;13.10;6.40;;;;;;;;;;5052710;28;20674;-67
2023/11/16 13:42:22;;;;;;;14.87;7.03;;;;;;;;;;5029629;28;20213;-68
2023/11/16 13:44:47;;;;;;;13.83;6.33;;;;;;;;;;5050040;28;20178;-67
2023/11/16 13:47:13;;;;;;;7.67;5.77;;;;;;;;;;5050434;28;20181;-67
2023/11/16 13:49:38;;;;;;;10.80;6.37;;;;;;;;;;5050488;28;20201;-67
2023/11/16 13:52:03;;;;;;;9.10;5.67;;;;;;;;;;5049801;28;20197;-67
2023/11/16 13:54:29;;;;;;;16.33;6.17;;;;;;;;;;5050114;28;20277;-67
2023/11/16 13:56:54;;;;;;;11.07;5.00;;;;;;;;;;5050126;28;20213;-67
2023/11/16 13:59:20;;;;;;;7.90;4.90;;;;;;;;;;5049192;28;20209;-67
2023/11/16 14:01:45;;;;;;;6.50;4.70;;;;;;;;;;5049312;28;20216;-67
2023/11/16 14:04:11;;;;;;;10.03;4.33;;;;;;;;;;5050515;28;20232;-67
2023/11/16 14:06:37;;;;;;;9.98;4.70;;;;;;;;;;5051112;28;20188;-67
2023/11/16 14:09:02;;;;;;;8.83;4.57;;;;;;;;;;5051406;28;20189;-67
2023/11/16 14:11:28;;;;;;;7.27;4.17;;;;;;;;;;5049592;28;20471;-67
2023/11/16 14:13:53;;;;;;;8.87;3.80;;;;;;;;;;5033954;28;20192;-67
2023/11/16 14:16:19;;;;;;;8.93;4.00;;;;;;;;;;5051155;28;20177;-67
2023/11/16 14:18:44;;;;;;;6.63;3.40;;;;;;;;;;5049519;28;20223;-68
2023/11/16 14:21:10;;;;;;;7.33;3.80;;;;;;;;;;5050129;28;20201;-67
2023/11/16 14:23:35;;;;;;;10.53;4.00;;;;;;;;;;5036392;28;20230;-68
2023/11/16 14:26:05;;;;;;;8.20;3.50;;;;;;;;;;5053749;28;20178;-68
2023/11/16 14:28:30;;;;;;;6.37;4.13;;;;;;;;;;5053072;28;20173;-67
2023/11/16 14:30:56;;;;;;;6.60;3.67;;;;;;;;;;5035972;28;20204;-67
2023/11/16 14:33:21;;;;;;;7.93;3.67;;;;;;;;;;5053589;28;20568;-68